Time;durP1;ratioP1;P1;durP2;ratioP2;P2;SDS_P1;SDS_P2;PMS_P1;PMS_P2;Temp;Humidity;BMP_temperature;BMP_pressure;BME280_temperature;BME280_humidity;BME280_pressure;Samples;Min_cycle;Max_cycle;Signal;HPM_P1;HPM_P2
2022/05/22 00:00:43;;;;;;;3.47;2.00;;;;;;;21.12;46.37;99591.84;4132368;28;20241;-71
2022/05/22 00:02:46;;;;;;;4.90;2.10;;;;;;;21.39;46.20;99573.28;4130294;28;20238;-71
2022/05/22 00:04:48;;;;;;;3.50;2.40;;;;;;;21.20;46.58;99579.88;4132877;28;20836;-71
2022/05/22 00:06:50;;;;;;;3.17;2.30;;;;;;;20.94;47.30;99579.22;4121930;28;20788;-71
2022/05/22 00:08:52;;;;;;;3.73;2.33;;;;;;;21.16;46.87;99574.94;4132176;28;20242;-71
2022/05/22 00:10:54;;;;;;;2.60;1.80;;;;;;;21.61;45.76;99578.94;4125709;28;20354;-71
2022/05/22 00:12:55;;;;;;;3.30;2.40;;;;;;;21.62;45.61;99587.88;4130702;28;20956;-71
2022/05/22 00:14:57;;;;;;;2.87;2.00;;;;;;;21.34;45.95;99594.81;4132493;28;20302;-71
2022/05/22 00:16:59;;;;;;;3.20;2.13;;;;;;;21.45;45.89;99594.00;4131514;28;20745;-71
2022/05/22 00:19:01;;;;;;;4.03;2.50;;;;;;;21.65;45.72;99584.75;4128287;28;20235;-71
2022/05/22 00:21:03;;;;;;;3.10;2.43;;;;;;;21.32;46.16;99586.94;4130238;28;20230;-71
2022/05/22 00:23:05;;;;;;;6.50;2.40;;;;;;;20.86;47.40;99588.47;4136384;28;20234;-71
2022/05/22 00:25:10;;;;;;;2.77;2.43;;;;;;;21.53;45.70;99582.03;4134621;28;20714;-71
2022/05/22 00:27:13;;;;;;;3.97;2.20;;;;;;;20.79;47.56;99593.97;4133390;28;20242;-71
2022/05/22 00:29:15;;;;;;;3.53;2.40;;;;;;;20.00;49.32;99582.31;4151188;28;20709;-71
2022/05/22 00:31:17;;;;;;;5.13;2.37;;;;;;;20.62;48.41;99574.09;4134082;28;20331;-71
2022/05/22 00:33:19;;;;;;;3.30;2.77;;;;;;;21.12;47.29;99572.94;4149614;28;20249;-71
2022/05/22 00:35:21;;;;;;;4.50;2.27;;;;;;;20.75;47.89;99567.66;4129520;28;20229;-71
2022/05/22 00:37:23;;;;;;;5.13;2.10;;;;;;;18.95;50.88;99565.03;4131754;28;20236;-71
2022/05/22 00:39:24;;;;;;;3.97;2.40;;;;;;;19.71;49.70;99552.34;4130528;28;20234;-71
2022/05/22 00:41:27;;;;;;;3.30;2.20;;;;;;;20.76;47.41;99553.09;4135507;28;20237;-71
2022/05/22 00:43:32;;;;;;;4.30;2.20;;;;;;;19.91;49.20;99552.13;4131241;28;20286;-71
2022/05/22 00:45:34;;;;;;;5.53;2.30;;;;;;;20.16;48.96;99557.44;4149045;28;20259;-71
2022/05/22 00:47:36;;;;;;;3.13;2.40;;;;;;;20.03;48.84;99546.78;4131046;28;20332;-71
2022/05/22 00:49:42;;;;;;;2.30;2.10;;;;;;;19.96;49.04;99546.03;4134808;28;20236;-71
2022/05/22 00:51:53;;;;;;;3.17;2.10;;;;;;;20.56;47.94;99547.97;4128647;28;20608;-71
2022/05/22 00:54:00;;;;;;;2.77;2.50;;;;;;;20.08;48.62;99549.63;4131645;28;20225;-71
2022/05/22 00:56:07;;;;;;;4.80;2.47;;;;;;;19.99;49.10;99554.53;4138210;28;20221;-71
2022/05/22 00:58:16;;;;;;;3.17;2.07;;;;;;;20.52;48.12;99539.53;4133656;28;20877;-71
2022/05/22 01:00:22;;;;;;;4.17;2.17;;;;;;;19.63;48.68;99550.75;4135236;28;20303;-71
2022/05/22 01:02:26;;;;;;;3.77;2.40;;;;;;;19.12;49.93;99538.38;4132584;28;20351;-71
2022/05/22 01:04:30;;;;;;;2.57;2.00;;;;;;;19.02;49.96;99544.25;4130139;28;20237;-71
2022/05/22 01:06:32;;;;;;;1.73;1.63;;;;;;;20.15;47.37;99528.78;4119104;28;20233;-71
2022/05/22 01:08:37;;;;;;;3.43;1.90;;;;;;;19.23;48.54;99561.06;4118419;28;20231;-71
2022/05/22 01:10:46;;;;;;;3.07;1.90;;;;;;;19.46;48.85;99539.69;4131538;28;20231;-71
2022/05/22 01:12:49;;;;;;;3.17;2.10;;;;;;;18.68;49.69;99549.03;4132234;28;20233;-71
2022/05/22 01:14:52;;;;;;;6.57;2.10;;;;;;;19.70;48.35;99532.63;4132434;28;20233;-71
2022/05/22 01:16:53;;;;;;;4.53;2.03;;;;;;;19.91;47.17;99540.50;4125263;28;20241;-70
2022/05/22 01:18:56;;;;;;;2.53;1.90;;;;;;;19.32;48.13;99554.38;4128973;28;20316;-71
2022/05/22 01:20:58;;;;;;;2.30;2.10;;;;;;;19.79;47.86;99549.34;4133331;28;20283;-71
2022/05/22 01:23:00;;;;;;;2.33;1.90;;;;;;;19.93;47.42;99544.63;4135434;28;20233;-71
2022/05/22 01:25:01;;;;;;;4.03;2.00;;;;;;;19.97;47.34;99547.69;4130570;28;20708;-71
2022/05/22 01:27:07;;;;;;;7.00;1.70;;;;;;;20.01;47.06;99557.81;4128800;28;20761;-71
2022/05/22 01:29:12;;;;;;;2.30;2.10;;;;;;;19.86;47.38;99570.88;4131093;28;20349;-71
2022/05/22 01:31:14;;;;;;;3.53;2.10;;;;;;;20.18;46.93;99547.22;4132830;28;20238;-71
2022/05/22 01:33:15;;;;;;;2.80;1.80;;;;;;;19.70;47.78;99559.59;4136502;28;20234;-71
2022/05/22 01:35:21;;;;;;;4.63;2.27;;;;;;;19.83;47.65;99565.91;4126289;28;20352;-71
2022/05/22 01:37:23;;;;;;;4.80;2.03;;;;;;;19.96;47.45;99559.53;4132051;28;20324;-71
2022/05/22 01:39:24;;;;;;;2.53;2.00;;;;;;;19.99;47.36;99562.63;4135129;28;20305;-71
2022/05/22 01:41:26;;;;;;;3.30;1.70;;;;;;;20.39;46.37;99558.59;4133306;28;20316;-71
2022/05/22 01:43:28;;;;;;;3.60;2.20;;;;;;;20.64;45.53;99576.56;4136510;28;20238;-71
2022/05/22 01:45:30;;;;;;;2.67;1.53;;;;;;;20.28;46.61;99567.47;4121505;28;20226;-71
2022/05/22 01:47:34;;;;;;;2.77;2.27;;;;;;;19.78;47.50;99553.09;4128710;28;20237;-71
2022/05/22 01:49:36;;;;;;;2.33;2.10;;;;;;;19.89;47.03;99570.38;4138022;28;20237;-71
2022/05/22 01:51:40;;;;;;;3.53;2.20;;;;;;;19.00;49.06;99572.44;4132072;28;20547;-71
2022/05/22 01:53:42;;;;;;;2.93;2.27;;;;;;;20.07;47.08;99543.41;4132372;28;20245;-71
2022/05/22 01:55:44;;;;;;;2.27;1.90;;;;;;;20.19;46.24;99551.56;4126917;28;20284;-72
2022/05/22 01:57:46;;;;;;;3.13;2.00;;;;;;;19.12;48.59;99557.25;4133207;28;20237;-71
2022/05/22 01:59:48;;;;;;;5.10;2.40;;;;;;;19.99;47.15;99537.50;4130793;28;20234;-71
2022/05/22 02:01:50;;;;;;;4.73;1.87;;;;;;;19.04;49.17;99552.13;4142386;28;20745;-71
2022/05/22 02:03:51;;;;;;;2.77;1.97;;;;;;;19.33;48.80;99542.53;4131252;28;20620;-71
2022/05/22 02:05:53;;;;;;;2.70;2.00;;;;;;;18.79;50.29;99539.41;4129796;28;20814;-71
2022/05/22 02:10:15;;;;;;;3.43;2.07;;;;;;;19.19;49.22;99522.16;4131066;28;20230;-71
2022/05/22 02:12:17;;;;;;;2.20;2.00;;;;;;;18.94;49.52;99526.47;4133391;28;20241;-71
2022/05/22 02:14:19;;;;;;;3.07;2.30;;;;;;;19.35;48.97;99513.47;4130645;28;20233;-71
2022/05/22 02:16:21;;;;;;;3.40;2.10;;;;;;;19.54;48.63;99508.09;4163237;28;20228;-71
2022/05/22 02:18:23;;;;;;;3.13;2.50;;;;;;;20.47;46.10;99515.09;4124773;28;20241;-71
2022/05/22 02:20:26;;;;;;;2.20;2.00;;;;;;;20.30;46.28;99523.00;4133964;28;20238;-71
2022/05/22 02:22:27;;;;;;;4.10;2.20;;;;;;;20.33;46.61;99521.72;4129676;28;20284;-71
2022/05/22 02:24:29;;;;;;;4.00;2.17;;;;;;;20.55;45.70;99527.41;4132595;28;20257;-71
2022/05/22 02:26:31;;;;;;;4.67;2.40;;;;;;;20.45;45.65;99525.31;4124959;28;20238;-71
2022/05/22 02:28:33;;;;;;;2.30;2.10;;;;;;;20.40;46.05;99534.09;4129718;28;20984;-71
2022/05/22 02:30:37;;;;;;;3.70;1.90;;;;;;;20.51;45.84;99524.34;4136004;28;20233;-71
2022/05/22 02:32:39;;;;;;;4.60;1.90;;;;;;;20.15;46.36;99541.47;4128325;28;20233;-71
2022/05/22 02:34:41;;;;;;;2.70;2.47;;;;;;;20.07;46.68;99534.47;4149464;28;20275;-72
2022/05/22 02:36:43;;;;;;;3.20;1.93;;;;;;;19.85;47.10;99542.22;4135181;28;20267;-71
2022/05/22 02:38:45;;;;;;;3.47;2.03;;;;;;;20.09;46.23;99529.69;4128895;28;20276;-71
2022/05/22 02:40:46;;;;;;;4.43;2.20;;;;;;;20.20;46.30;99523.50;4132910;28;20241;-71
2022/05/22 02:42:50;;;;;;;2.43;2.20;;;;;;;20.14;46.26;99526.31;4128492;28;20714;-71
2022/05/22 02:44:52;;;;;;;2.20;2.00;;;;;;;19.36;48.31;99525.91;4130975;28;20221;-71
2022/05/22 02:46:53;;;;;;;4.50;2.17;;;;;;;19.38;48.55;99506.81;4147278;28;20233;-71
2022/05/22 02:48:55;;;;;;;3.93;1.87;;;;;;;18.88;49.48;99518.44;4126873;28;20661;-71
2022/05/22 02:50:57;;;;;;;3.17;2.27;;;;;;;18.68;49.32;99522.09;4130009;28;20875;-71
2022/05/22 02:52:58;;;;;;;9.03;2.77;;;;;;;18.97;48.83;99508.25;4129436;28;20229;-72
2022/05/22 02:55:00;;;;;;;4.13;2.70;;;;;;;18.96;49.54;99504.72;4125312;28;20233;-72
2022/05/22 02:57:04;;;;;;;4.20;2.30;;;;;;;19.41;48.61;99490.19;4137068;28;20245;-72
2022/05/22 02:59:05;;;;;;;5.23;2.27;;;;;;;19.46;48.12;99490.34;4163572;28;20232;-72
2022/05/22 03:01:07;;;;;;;3.83;2.70;;;;;;;18.74;49.56;99505.03;4142632;28;20666;-73
2022/05/22 03:03:09;;;;;;;5.93;2.40;;;;;;;18.20;51.21;99501.88;4131331;28;20245;-72
2022/05/22 03:05:11;;;;;;;5.77;2.43;;;;;;;17.61;52.24;99490.31;4129980;28;20240;-72
2022/05/22 03:07:20;;;;;;;4.20;2.37;;;;;;;18.02;51.14;99472.16;4133320;28;20870;-72
2022/05/22 03:09:22;;;;;;;3.10;2.20;;;;;;;19.10;48.42;99462.28;4134288;28;20291;-72
2022/05/22 03:11:23;;;;;;;5.50;2.60;;;;;;;19.46;47.91;99468.78;4149605;28;20327;-72
2022/05/22 03:13:25;;;;;;;3.63;2.90;;;;;;;19.56;47.25;99479.09;4129158;28;20327;-72
2022/05/22 03:15:27;;;;;;;3.17;2.40;;;;;;;19.73;47.39;99484.69;4135092;28;20291;-72
2022/05/22 03:17:28;;;;;;;3.00;2.80;;;;;;;19.90;46.91;99483.00;4135251;28;20238;-72
2022/05/22 03:19:30;;;;;;;4.27;2.47;;;;;;;19.45;48.03;99494.09;4129765;28;20234;-72
2022/05/22 03:21:32;;;;;;;3.00;2.30;;;;;;;19.62;47.44;99497.03;4132647;28;20296;-72
2022/05/22 03:23:33;;;;;;;4.90;2.93;;;;;;;19.52;47.60;99497.53;4133687;28;20304;-72
2022/05/22 03:25:35;;;;;;;5.97;2.63;;;;;;;19.17;48.60;99508.03;4128278;28;20308;-72
2022/05/22 03:27:37;;;;;;;3.60;2.60;;;;;;;18.75;49.42;99489.72;4131637;28;20287;-72
2022/05/22 03:29:41;;;;;;;4.90;2.60;;;;;;;19.04;48.02;99476.66;4128662;28;20234;-72
2022/05/22 03:31:42;;;;;;;3.97;2.60;;;;;;;18.77;48.04;99493.84;4133783;28;20299;-72
2022/05/22 03:33:44;;;;;;;3.10;2.60;;;;;;;18.34;49.41;99496.41;4129674;28;20237;-72
2022/05/22 03:35:46;;;;;;;4.57;2.63;;;;;;;18.04;50.02;99497.81;4136622;28;20659;-72
2022/05/22 03:37:48;;;;;;;4.17;2.67;;;;;;;18.92;47.91;99473.88;4132911;28;20272;-72
2022/05/22 03:39:50;;;;;;;2.77;2.50;;;;;;;19.03;47.81;99470.47;4131890;28;20309;-72
2022/05/22 03:41:52;;;;;;;3.87;2.13;;;;;;;18.89;47.92;99482.41;4133538;28;20233;-72
2022/05/22 03:43:54;;;;;;;4.77;2.60;;;;;;;18.84;48.07;99480.34;4134419;28;20248;-72
2022/05/22 03:45:55;;;;;;;4.87;2.50;;;;;;;18.85;48.02;99478.50;4133723;28;20235;-72
2022/05/22 03:47:57;;;;;;;2.60;2.40;;;;;;;18.30;49.00;99487.94;4132425;28;20339;-72
2022/05/22 03:50:04;;;;;;;3.60;2.60;;;;;;;18.11;50.05;99483.53;4134402;28;20283;-72
2022/05/22 03:52:06;;;;;;;4.17;2.70;;;;;;;18.70;48.74;99466.16;4134887;28;20233;-72
2022/05/22 03:54:09;;;;;;;3.17;2.87;;;;;;;18.99;48.06;99479.22;4136438;28;20238;-72
2022/05/22 03:56:13;;;;;;;3.43;2.50;;;;;;;18.97;47.91;99479.44;4132802;28;20237;-72
2022/05/22 03:58:18;;;;;;;2.60;2.40;;;;;;;18.88;48.38;99473.50;4128748;28;21385;-72
2022/05/22 04:00:23;;;;;;;2.93;2.63;;;;;;;19.13;48.19;99462.69;4126706;28;20229;-72
2022/05/22 04:02:24;;;;;;;3.47;2.37;;;;;;;18.58;48.91;99484.88;4117422;28;20305;-72
2022/05/22 04:04:26;;;;;;;3.17;2.40;;;;;;;19.02;48.27;99468.81;4112226;28;20281;-71
2022/05/22 04:06:28;;;;;;;4.47;2.70;;;;;;;19.10;48.00;99460.44;4119493;28;20296;-72
2022/05/22 04:08:31;;;;;;;4.27;2.87;;;;;;;18.62;49.28;99463.72;4134119;28;20585;-72
2022/05/22 04:10:35;;;;;;;3.00;2.70;;;;;;;19.03;47.83;99457.00;4138833;28;20229;-72
2022/05/22 04:12:38;;;;;;;2.90;2.60;;;;;;;19.18;47.42;99461.19;4133433;28;20230;-72
2022/05/22 04:14:40;;;;;;;2.37;2.17;;;;;;;18.97;47.94;99476.72;4129448;28;20228;-72
2022/05/22 04:16:41;;;;;;;2.97;2.43;;;;;;;19.28;47.09;99464.19;4138207;28;20803;-72
2022/05/22 04:18:43;;;;;;;4.63;2.43;;;;;;;19.09;47.82;99474.94;4131602;28;20361;-72
2022/05/22 04:20:45;;;;;;;5.30;2.97;;;;;;;18.90;47.79;99481.34;4137284;28;20304;-72
2022/05/22 04:25:13;;;;;;;4.80;2.50;;;;;;;18.03;50.71;99471.94;4110681;28;20825;-72
2022/05/22 04:27:15;;;;;;;4.27;2.50;;;;;;;18.81;48.75;99440.34;4109113;28;20305;-72
2022/05/22 04:29:16;;;;;;;5.63;2.67;;;;;;;18.34;50.27;99461.44;4117988;28;20233;-73
2022/05/22 04:31:19;;;;;;;4.07;2.77;;;;;;;19.07;48.47;99438.50;4139436;28;20245;-72
2022/05/22 04:33:21;;;;;;;4.10;2.40;;;;;;;19.21;47.89;99441.88;4147987;28;20233;-72
2022/05/22 04:35:23;;;;;;;2.83;2.40;;;;;;;18.59;49.24;99456.06;4132514;28;21250;-72
2022/05/22 04:37:24;;;;;;;3.40;2.20;;;;;;;19.25;48.31;99445.78;4129531;28;20232;-72
2022/05/22 04:39:26;;;;;;;2.80;2.10;;;;;;;19.58;47.55;99447.31;4132247;28;20230;-72
2022/05/22 04:41:28;;;;;;;3.87;2.27;;;;;;;18.47;49.70;99476.69;4124942;28;20671;-72
2022/05/22 04:43:31;;;;;;;5.73;2.60;;;;;;;17.85;51.12;99461.91;4133982;28;20242;-72
2022/05/22 04:45:33;;;;;;;4.17;2.70;;;;;;;17.24;52.29;99460.38;4135848;28;20280;-72
2022/05/22 04:47:37;;;;;;;6.80;3.20;;;;;;;18.70;49.26;99428.44;4127239;28;20272;-72
2022/05/22 04:49:39;;;;;;;4.70;2.33;;;;;;;18.69;49.19;99439.44;4132796;28;20257;-72
2022/05/22 04:51:41;;;;;;;3.40;2.60;;;;;;;18.82;49.15;99436.66;4126681;28;20222;-72
2022/05/22 04:53:43;;;;;;;3.77;2.80;;;;;;;19.26;48.44;99426.69;4133352;28;20233;-72
2022/05/22 04:55:45;;;;;;;6.70;2.50;;;;;;;19.43;47.78;99432.28;4129622;28;20300;-72
2022/05/22 04:57:47;;;;;;;4.53;2.57;;;;;;;19.30;48.43;99440.53;4130410;28;20226;-72
2022/05/22 04:59:48;;;;;;;3.20;2.90;;;;;;;19.32;48.05;99443.84;4129549;28;20234;-72
2022/05/22 05:01:51;;;;;;;5.90;2.77;;;;;;;19.62;47.50;99441.25;4129519;28;20275;-72
2022/05/22 05:03:53;;;;;;;2.77;2.30;;;;;;;19.34;48.31;99447.13;4131868;28;20233;-72
2022/05/22 05:05:57;;;;;;;3.97;2.50;;;;;;;18.16;50.90;99467.56;4136300;28;20241;-72
2022/05/22 05:07:59;;;;;;;3.37;2.77;;;;;;;18.90;49.58;99430.19;4128100;28;20655;-72
2022/05/22 05:10:00;;;;;;;4.40;2.57;;;;;;;19.50;48.58;99430.38;4131435;28;20281;-72
2022/05/22 05:12:06;;;;;;;2.70;2.23;;;;;;;19.79;47.66;99435.22;4130232;28;20778;-72
2022/05/22 05:14:07;;;;;;;4.80;2.67;;;;;;;19.75;47.86;99436.72;4134006;28;20279;-72
2022/05/22 05:16:12;;;;;;;7.03;3.30;;;;;;;19.41;49.04;99439.78;4133228;28;20698;-72
2022/05/22 05:18:14;;;;;;;3.80;2.40;;;;;;;19.46;48.69;99449.91;4129820;28;20256;-72
2022/05/22 05:20:20;;;;;;;5.30;2.90;;;;;;;19.20;50.07;99434.84;4135005;28;20244;-72
2022/05/22 05:22:22;;;;;;;4.67;2.33;;;;;;;19.48;49.33;99440.53;4132371;28;21046;-72
2022/05/22 05:24:24;;;;;;;3.13;2.20;;;;;;;20.00;48.85;99426.63;4128600;28;20268;-72
2022/05/22 05:26:28;;;;;;;2.60;2.33;;;;;;;19.99;48.97;99443.03;4137066;28;20296;-72
2022/05/22 05:28:30;;;;;;;3.43;2.60;;;;;;;20.22;47.77;99442.31;4135377;28;20230;-72
2022/05/22 05:30:31;;;;;;;3.83;2.37;;;;;;;19.93;48.04;99449.38;4137775;28;20726;-72
2022/05/22 05:32:33;;;;;;;3.67;2.70;;;;;;;19.15;48.63;99467.88;4130819;28;20351;-72
2022/05/22 05:34:36;;;;;;;3.80;2.70;;;;;;;19.66;48.17;99464.00;4133806;28;20299;-72
2022/05/22 05:36:38;;;;;;;3.30;2.90;;;;;;;20.10;46.99;99457.66;4131222;28;20300;-72
2022/05/22 05:38:40;;;;;;;3.57;2.80;;;;;;;19.86;47.80;99460.25;4137163;28;20661;-72
2022/05/22 05:40:58;;;;;;;2.93;2.70;;;;;;;20.35;47.26;99442.13;4129319;28;20226;-72
2022/05/22 05:43:00;;;;;;;4.87;3.30;;;;;;;19.52;49.45;99471.41;4132874;28;20229;-71
2022/05/22 05:45:08;;;;;;;3.93;3.50;;;;;;;19.85;49.00;99453.19;4130972;28;20309;-72
2022/05/22 05:47:09;;;;;;;3.80;3.20;;;;;;;19.87;48.87;99448.38;4138766;28;20247;-72
2022/05/22 05:49:12;;;;;;;4.13;3.47;;;;;;;19.69;48.79;99463.56;4134223;28;20873;-72
2022/05/22 05:51:14;;;;;;;4.43;3.00;;;;;;;19.44;49.89;99457.41;4127847;28;20230;-72
2022/05/22 05:53:16;;;;;;;4.97;3.20;;;;;;;19.60;49.40;99458.69;4127297;28;20749;-72
2022/05/22 05:55:18;;;;;;;4.47;3.10;;;;;;;20.17;48.46;99444.88;4157253;28;20240;-72
2022/05/22 05:57:40;;;;;;;5.20;3.33;;;;;;;19.72;50.00;99448.78;4140621;28;20269;-72
2022/05/22 05:59:43;;;;;;;3.73;3.20;;;;;;;20.10;48.62;99439.56;4135562;28;20244;-72
2022/05/22 06:01:44;;;;;;;4.10;3.70;;;;;;;18.93;50.43;99478.19;4134614;28;20295;-72
2022/05/22 06:03:46;;;;;;;5.20;3.60;;;;;;;19.83;49.18;99447.22;4131144;28;20237;-72
2022/05/22 06:05:48;;;;;;;4.57;3.40;;;;;;;20.06;49.27;99457.25;4131101;28;20234;-72
2022/05/22 06:07:51;;;;;;;5.07;4.00;;;;;;;20.35;48.51;99447.53;4129935;28;20257;-72
2022/05/22 06:09:53;;;;;;;6.50;3.97;;;;;;;20.55;48.09;99455.34;4133618;28;20233;-72
2022/05/22 06:11:54;;;;;;;4.40;3.77;;;;;;;20.59;48.30;99456.50;4135172;28;20225;-72
2022/05/22 06:13:56;;;;;;;4.13;3.73;;;;;;;20.56;48.09;99456.97;4130355;28;20644;-72
2022/05/22 06:15:58;;;;;;;5.27;3.63;;;;;;;20.50;48.78;99460.63;4125842;28;20234;-72
2022/05/22 06:18:00;;;;;;;4.77;4.00;;;;;;;20.63;48.48;99451.47;4144707;28;20300;-72
2022/05/22 06:20:07;;;;;;;6.10;3.80;;;;;;;20.55;48.92;99463.44;4129459;28;20234;-72
2022/05/22 06:22:09;;;;;;;4.87;3.93;;;;;;;20.59;48.45;99471.91;4158486;28;20237;-72
2022/05/22 06:24:11;;;;;;;6.37;4.20;;;;;;;19.34;51.34;99474.09;4127044;28;20280;-73
2022/05/22 06:26:15;;;;;;;6.70;4.27;;;;;;;20.27;49.32;99465.94;4131274;28;20229;-72
2022/05/22 06:28:17;;;;;;;6.67;4.23;;;;;;;20.46;49.46;99462.13;4129239;28;20299;-72
2022/05/22 06:30:20;;;;;;;5.57;4.20;;;;;;;20.75;48.41;99448.78;4135801;28;20293;-71
2022/05/22 06:32:22;;;;;;;7.00;4.00;;;;;;;20.70;48.59;99473.81;4129055;28;20288;-70
2022/05/22 06:34:24;;;;;;;4.77;4.10;;;;;;;20.49;48.96;99475.16;4134240;28;20233;-72
2022/05/22 06:36:26;;;;;;;5.53;4.27;;;;;;;20.72;48.43;99477.09;4150019;28;20346;-73
2022/05/22 06:40:50;;;;;;;5.47;3.90;;;;;;;20.59;49.43;99477.31;4128753;28;20296;-73
2022/05/22 06:42:52;;;;;;;5.13;4.13;;;;;;;20.46;49.79;99474.81;4133368;28;20275;-72
2022/05/22 06:45:07;;;;;;;5.83;3.97;;;;;;;20.72;49.43;99474.38;4130565;28;20313;-72
2022/05/22 06:47:10;;;;;;;6.07;4.73;;;;;;;19.61;51.77;99500.81;4126186;28;20238;-69
2022/05/22 06:49:12;;;;;;;5.07;4.17;;;;;;;20.37;50.64;99466.22;4120030;28;20295;-71
2022/05/22 06:51:14;;;;;;;6.10;4.50;;;;;;;20.78;49.88;99465.31;4116066;28;20237;-72
2022/05/22 06:53:15;;;;;;;5.77;3.90;;;;;;;20.18;51.75;99463.53;4115560;28;20335;-71
2022/05/22 06:55:17;;;;;;;8.20;3.90;;;;;;;21.17;49.11;99451.38;4117615;28;20265;-70
2022/05/22 06:57:20;;;;;;;4.90;4.10;;;;;;;21.04;49.81;99462.44;4118206;28;20301;-72
2022/05/22 06:59:23;;;;;;;5.43;3.80;;;;;;;20.56;51.58;99467.78;4123737;28;20600;-70
2022/05/22 07:01:26;;;;;;;8.93;3.87;;;;;;;20.53;51.47;99445.81;4127498;28;20238;-71
2022/05/22 07:03:28;;;;;;;7.17;3.87;;;;;;;20.65;51.60;99441.25;4130035;28;20230;-70
2022/05/22 07:05:30;;;;;;;6.30;4.57;;;;;;;20.83;50.57;99455.72;4130604;28;21010;-70
2022/05/22 07:07:32;;;;;;;5.57;4.10;;;;;;;21.13;49.50;99451.03;4137830;28;20257;-71
2022/05/22 07:09:34;;;;;;;6.30;4.10;;;;;;;20.93;50.02;99450.56;4136070;28;20249;-71
2022/05/22 07:11:39;;;;;;;5.07;3.90;;;;;;;20.90;49.70;99462.63;4130307;28;20238;-72
2022/05/22 07:13:40;;;;;;;6.13;4.27;;;;;;;20.94;49.63;99453.03;4131589;28;20229;-70
2022/05/22 07:15:42;;;;;;;5.70;3.90;;;;;;;20.00;51.52;99467.09;4129838;28;20648;-70
2022/05/22 07:17:44;;;;;;;4.97;3.60;;;;;;;20.84;49.09;99458.19;4129683;28;20242;-71
2022/05/22 07:19:45;;;;;;;5.50;3.67;;;;;;;21.20;48.50;99450.91;4131326;28;20241;-71
2022/05/22 07:21:47;;;;;;;6.30;3.40;;;;;;;21.35;47.62;99450.44;4133119;28;20241;-70
2022/05/22 07:23:49;;;;;;;4.27;3.63;;;;;;;21.01;46.92;99462.94;4129822;28;20256;-71
2022/05/22 07:25:53;;;;;;;7.67;3.60;;;;;;;21.50;46.33;99458.88;4132413;28;20245;-70
2022/05/22 07:27:54;;;;;;;6.57;3.80;;;;;;;21.52;47.64;99461.34;4136981;28;20343;-71
2022/05/22 07:29:56;;;;;;;6.97;3.50;;;;;;;21.60;47.59;99465.56;4134675;28;20233;-71
2022/05/22 07:31:58;;;;;;;3.80;3.20;;;;;;;21.63;47.85;99465.09;4131334;28;20751;-71
2022/05/22 07:34:00;;;;;;;6.27;3.50;;;;;;;20.66;49.65;99475.31;4140249;28;20229;-72
2022/05/22 07:36:02;;;;;;;4.70;3.30;;;;;;;20.81;48.90;99466.75;4134102;28;20252;-72
2022/05/22 07:38:04;;;;;;;5.83;3.20;;;;;;;22.09;46.71;99442.47;4133062;28;20292;-72
2022/05/22 07:40:06;;;;;;;4.50;2.80;;;;;;;21.14;48.63;99458.09;4127618;28;20715;-72
2022/05/22 07:42:08;;;;;;;4.67;2.93;;;;;;;20.80;49.80;99457.84;4133597;28;20229;-71
2022/05/22 07:44:09;;;;;;;4.33;3.00;;;;;;;20.93;50.31;99453.25;4134309;28;20235;-71
2022/05/22 07:46:13;;;;;;;4.13;3.20;;;;;;;20.64;50.90;99461.22;4134635;28;20277;-70
2022/05/22 07:48:15;;;;;;;3.73;3.07;;;;;;;19.65;52.24;99445.34;4134539;28;20621;-71
2022/05/22 07:50:17;;;;;;;6.13;2.90;;;;;;;21.18;48.94;99420.59;4133080;28;20237;-71
2022/05/22 07:52:19;;;;;;;5.70;3.33;;;;;;;22.00;47.87;99422.28;4133830;28;21313;-71
2022/05/22 07:54:23;;;;;;;3.33;3.03;;;;;;;22.02;48.23;99419.31;4136027;28;20226;-71
2022/05/22 07:56:24;;;;;;;4.17;3.10;;;;;;;21.41;49.51;99435.13;4134035;28;20232;-71
2022/05/22 07:58:27;;;;;;;5.03;2.90;;;;;;;20.04;51.95;99437.78;4125773;28;20320;-70
2022/05/22 08:00:28;;;;;;;4.90;2.80;;;;;;;21.67;48.70;99404.88;4132542;28;20602;-71
2022/05/22 08:02:30;;;;;;;4.87;2.40;;;;;;;21.59;48.04;99426.84;4136065;28;20237;-71
2022/05/22 08:04:32;;;;;;;4.83;2.23;;;;;;;21.48;45.26;99425.03;4129126;28;20265;-71
2022/05/22 08:06:34;;;;;;;8.40;3.07;;;;;;;22.21;46.27;99434.28;4138453;28;20254;-72
2022/05/22 08:08:36;;;;;;;6.43;2.70;;;;;;;22.41;45.86;99428.44;4138620;28;20233;-71
2022/05/22 08:10:44;;;;;;;4.63;2.97;;;;;;;22.22;47.88;99424.25;4131693;28;20229;-72
2022/05/22 08:12:48;;;;;;;5.63;3.03;;;;;;;21.94;47.58;99435.94;4128571;28;20241;-71
2022/05/22 08:14:51;;;;;;;4.57;3.20;;;;;;;21.86;47.99;99421.72;4128662;28;20693;-72
2022/05/22 08:16:54;;;;;;;4.97;3.03;;;;;;;22.19;46.98;99411.22;4132494;28;20229;-72
2022/05/22 08:18:56;;;;;;;6.37;3.10;;;;;;;21.46;47.82;99429.81;4126743;28;20268;-72
2022/05/22 08:20:57;;;;;;;4.40;2.77;;;;;;;21.89;48.04;99404.19;4130143;28;20229;-72
2022/05/22 08:23:02;;;;;;;5.87;2.73;;;;;;;22.48;46.91;99392.22;4128590;28;20230;-72
2022/05/22 08:25:04;;;;;;;5.33;3.00;;;;;;;22.37;46.35;99393.94;4127234;28;20238;-72
2022/05/22 08:27:06;;;;;;;4.47;2.87;;;;;;;22.83;46.02;99400.91;4125899;28;20238;-72
2022/05/22 08:29:08;;;;;;;5.90;2.65;;;;;;;21.02;49.16;99407.81;4125084;28;20242;-72
2022/05/22 08:31:11;;;;;;;4.53;2.77;;;;;;;21.25;48.63;99413.19;4123052;28;20244;-72
2022/05/22 08:33:14;;;;;;;4.70;2.80;;;;;;;22.43;47.35;99396.50;4153467;28;20914;-72
2022/05/22 08:35:21;;;;;;;5.18;2.80;;;;;;;22.62;47.03;99390.81;4129797;28;20237;-73
2022/05/22 08:37:23;;;;;;;3.90;2.50;;;;;;;22.35;48.14;99390.66;4135506;28;20683;-72
2022/05/22 08:39:24;;;;;;;3.13;2.80;;;;;;;22.37;47.86;99399.34;4132921;28;20249;-72
2022/05/22 08:41:32;;;;;;;3.80;2.90;;;;;;;22.53;47.64;99395.03;4128331;28;20234;-72
2022/05/22 08:43:56;;;;;;;4.32;2.53;;;;;;;22.62;47.28;99386.25;4128389;28;21439;-72
2022/05/22 08:46:30;;;;;;;3.88;2.33;;;;;;;21.45;48.27;99407.38;4128239;28;20271;-72
2022/05/22 08:48:53;;;;;;;3.25;2.50;;;;;;;22.04;48.54;99384.72;4120920;28;20229;-72
2022/05/22 08:50:57;;;;;;;5.20;2.63;;;;;;;22.34;47.00;99376.31;4137271;28;20253;-73
2022/05/22 08:53:15;;;;;;;4.68;2.40;;;;;;;22.89;46.54;99374.66;4123248;28;20292;-72
2022/05/22 08:55:20;;;;;;;4.20;2.40;;;;;;;23.79;45.93;99362.78;4131759;28;20237;-72
2022/05/22 09:00:14;;;;;;;5.55;2.35;;;;;;;23.55;45.23;99382.03;4139608;28;20233;-73
2022/05/22 09:02:52;;;;;;;5.25;2.70;;;;;;;23.74;43.67;99363.56;4133107;28;20284;-73
2022/05/22 09:05:11;;;;;;;3.03;2.60;;;;;;;24.52;42.19;99373.22;4113155;28;20276;-73
2022/05/22 09:07:20;;;;;;;3.13;2.20;;;;;;;23.53;42.88;99389.63;4131143;28;20245;-73
2022/05/22 09:09:27;;;;;;;3.63;2.20;;;;;;;23.50;43.17;99384.69;4125826;28;20268;-72
2022/05/22 09:11:40;;;;;;;4.85;2.55;;;;;;;23.39;44.77;99384.56;4133498;28;20284;-72
2022/05/22 09:13:41;;;;;;;3.95;2.20;;;;;;;22.42;45.15;99373.19;4127544;28;20288;-73
2022/05/22 09:15:47;;;;;;;5.07;2.30;;;;;;;22.96;43.60;99361.81;4136016;28;20330;-73
2022/05/22 09:17:56;;;;;;;3.40;2.15;;;;;;;23.79;44.28;99349.19;4128691;28;20241;-73
2022/05/22 09:20:10;;;;;;;2.67;2.17;;;;;;;24.61;42.49;99349.91;4133423;28;20237;-73
2022/05/22 09:22:44;;;;;;;6.07;2.33;;;;;;;23.25;43.28;99377.06;4127923;28;20238;-73
2022/05/22 09:25:08;;;;;;;4.35;2.20;;;;;;;24.02;43.51;99350.78;4140859;28;20291;-74
2022/05/22 09:27:42;;;;;;;3.25;2.40;;;;;;;22.95;43.10;99370.19;4128753;28;20295;-73
2022/05/22 09:29:58;;;;;;;4.93;2.40;;;;;;;24.36;41.36;99348.63;4128971;28;20315;-73
2022/05/22 09:32:19;;;;;;;2.20;1.90;;;;;;;24.50;40.06;99358.00;4124832;28;20719;-73
2022/05/22 09:34:40;;;;;;;4.55;2.30;;;;;;;24.23;40.88;99357.25;4125328;28;20230;-74
2022/05/22 09:36:51;;;;;;;3.63;2.08;;;;;;;24.65;40.47;99349.13;4127810;28;20662;-73
2022/05/22 09:39:16;;;;;;;3.70;1.80;;;;;;;24.95;40.30;99347.69;4122161;28;20648;-73
2022/05/22 09:41:33;;;;;;;5.22;2.13;;;;;;;24.84;39.31;99349.53;4127729;28;20289;-74
2022/05/22 09:44:18;;;;;;;6.30;2.17;;;;;;;24.65;40.97;99361.91;4122421;28;20226;-73
2022/05/22 09:47:19;;;;;;;4.53;1.98;;;;;;;24.50;41.83;99343.59;4100471;28;20279;-73
2022/05/22 09:49:37;;;;;;;3.05;2.00;;;;;;;23.99;40.37;99354.00;4126080;28;20233;-73
2022/05/22 09:52:20;;;;;;;2.95;1.80;;;;;;;24.68;41.30;99351.31;4125734;28;20702;-73
2022/05/22 09:54:25;;;;;;;3.60;2.10;;;;;;;24.28;40.50;99346.44;4122513;28;20226;-74
2022/05/22 09:56:52;;;;;;;3.78;2.20;;;;;;;24.78;39.69;99342.41;4128954;28;23024;-73